Time;durP1;ratioP1;P1;durP2;ratioP2;P2;SDS_P1;SDS_P2;PMS_P1;PMS_P2;Temp;Humidity;BMP_temperature;BMP_pressure;BME280_temperature;BME280_humidity;BME280_pressure;Samples;Min_cycle;Max_cycle;Signal;HPM_P1;HPM_P2
2022/08/27 00:02:08;;;;;;;18.20;9.50;;;;;;;21.09;54.38;99521.55;1630793;87;21529;-74
2022/08/27 00:04:36;;;;;;;14.87;10.05;;;;;;;21.05;54.18;99515.94;1607415;88;21079;-73
2022/08/27 00:07:05;;;;;;;12.18;8.73;;;;;;;21.09;53.75;99512.79;1610352;88;21119;-74
2022/08/27 00:09:33;;;;;;;11.75;8.58;;;;;;;21.09;53.75;99512.79;1587683;89;21560;-75
2022/08/27 00:11:59;;;;;;;11.15;9.50;;;;;;;21.13;53.71;99507.47;1606793;88;21342;-76
2022/08/27 00:14:27;;;;;;;14.75;10.60;;;;;;;21.13;53.69;99511.04;1591389;89;21060;-75
2022/08/27 00:16:54;;;;;;;13.90;9.75;;;;;;;21.08;53.73;99509.00;1612547;87;21071;-75
2022/08/27 00:19:21;;;;;;;10.13;8.73;;;;;;;21.07;53.58;99505.45;1612586;88;21039;-74
2022/08/27 00:21:48;;;;;;;12.60;9.65;;;;;;;21.07;53.65;99508.75;1606776;88;21154;-75
2022/08/27 00:24:14;;;;;;;17.57;10.08;;;;;;;21.04;53.51;99506.11;1607360;89;22048;-76
2022/08/27 00:26:41;;;;;;;15.78;8.93;;;;;;;21.00;53.46;99512.00;1609581;87;21515;-73
2022/08/27 00:29:08;;;;;;;12.78;8.38;;;;;;;21.01;53.26;99514.14;1608064;87;21078;-75
2022/08/27 00:31:36;;;;;;;19.67;9.83;;;;;;;21.15;52.74;99512.09;1595584;88;21071;-74
2022/08/27 00:34:04;;;;;;;18.27;10.50;;;;;;;21.15;52.74;99512.09;1557178;90;21103;-73
2022/08/27 00:36:30;;;;;;;12.15;9.90;;;;;;;21.22;52.85;99513.75;1604208;88;21160;-74
2022/08/27 00:38:57;;;;;;;17.70;10.48;;;;;;;21.18;53.18;99510.88;1606189;89;21114;-74
2022/08/27 00:41:23;;;;;;;14.78;9.55;;;;;;;21.06;53.71;99512.05;1606891;88;21567;-75
2022/08/27 00:43:56;;;;;;;13.58;9.73;;;;;;;21.04;53.72;99516.25;1584339;89;21734;-75
2022/08/27 00:46:32;;;;;;;;;;;;;;;21.04;53.72;99516.25;1588540;89;21153;-75
2022/08/27 00:49:07;;;;;;;11.22;9.05;;;;;;;20.98;54.14;99516.97;1610568;89;21187;-75
2022/08/27 00:51:35;;;;;;;14.07;8.98;;;;;;;20.89;54.45;99514.25;1614170;87;20974;-76
2022/08/27 00:54:02;;;;;;;17.10;9.40;;;;;;;20.94;54.20;99519.30;1616144;87;21003;-72
2022/08/27 00:56:33;;;;;;;16.45;9.38;;;;;;;20.94;54.20;99519.30;1584830;89;21047;-74
2022/08/27 00:59:01;;;;;;;11.70;10.30;;;;;;;20.94;54.19;99518.75;1612275;87;21071;-74
2022/08/27 01:01:30;;;;;;;14.70;10.03;;;;;;;20.86;54.58;99516.83;1629707;87;21158;-74
2022/08/27 01:04:00;;;;;;;11.85;8.88;;;;;;;20.81;54.80;99512.89;1597089;88;21099;-74
2022/08/27 01:06:30;;;;;;;15.23;10.58;;;;;;;20.81;54.58;99515.03;1561846;91;21100;-73
2022/08/27 01:09:03;;;;;;;18.85;9.80;;;;;;;20.80;54.66;99517.55;1613160;87;21052;-75
2022/08/27 01:11:30;;;;;;;9.60;8.05;;;;;;;20.77;54.79;99507.23;1578465;88;21043;-75
2022/08/27 01:13:57;;;;;;;14.35;8.38;;;;;;;20.76;54.81;99514.41;1593467;88;21232;-76
2022/08/27 01:16:26;;;;;;;13.75;10.15;;;;;;;20.78;54.64;99517.05;1596166;88;21124;-75
2022/08/27 01:18:53;;;;;;;16.93;8.90;;;;;;;20.84;54.43;99519.06;1576332;90;21106;-77
2022/08/27 01:21:31;;;;;;;13.10;9.85;;;;;;;20.93;53.68;99521.80;1626332;87;21531;-76
2022/08/27 01:24:32;;;;;;;13.93;9.93;;;;;;;20.93;53.68;99521.80;1611984;89;21660;-76
2022/08/27 01:26:59;;;;;;;15.15;10.00;;;;;;;20.83;54.08;99514.16;1612018;87;21123;-74
2022/08/27 01:29:27;;;;;;;18.00;9.35;;;;;;;20.82;54.13;99516.64;1612180;89;21499;-75
2022/08/27 01:32:01;;;;;;;12.63;10.05;;;;;;;20.80;54.27;99518.91;1633174;87;21682;-76
2022/08/27 01:34:28;;;;;;;12.58;9.13;;;;;;;20.77;54.38;99514.07;1612654;88;21635;-75
2022/08/27 01:36:55;;;;;;;14.25;10.05;;;;;;;20.68;54.58;99513.27;1589689;88;21522;-76
2022/08/27 01:39:22;;;;;;;13.05;9.33;;;;;;;20.63;54.85;99518.08;1562150;91;21583;-76
2022/08/27 01:41:49;;;;;;;15.05;8.93;;;;;;;20.58;54.89;99515.50;1582024;90;21056;-76
2022/08/27 01:44:16;;;;;;;15.15;9.65;;;;;;;20.62;54.80;99520.59;1623377;86;21522;-75
2022/08/27 01:46:43;;;;;;;24.50;10.80;;;;;;;20.61;54.67;99517.05;1614295;86;21305;-76
2022/08/27 01:49:10;;;;;;;15.40;11.75;;;;;;;20.59;54.88;99521.22;1638455;87;21066;-76
2022/08/27 01:51:36;;;;;;;24.75;13.85;;;;;;;20.60;55.05;99520.09;1601158;88;21325;-82
2022/08/27 01:54:04;;;;;;;25.68;15.03;;;;;;;20.60;55.05;99520.91;1608471;89;21648;-77
2022/08/27 01:56:30;;;;;;;33.00;14.98;;;;;;;20.63;55.06;99517.52;1581479;89;21018;-81
2022/08/27 01:58:57;;;;;;;18.73;14.63;;;;;;;20.60;55.33;99515.44;1608354;88;21063;-83
2022/08/27 02:01:23;;;;;;;19.40;12.95;;;;;;;20.51;55.63;99509.72;1607660;89;21067;-79
2022/08/27 02:03:50;;;;;;;14.33;11.03;;;;;;;20.42;55.94;99512.45;1614550;87;21258;-82
2022/08/27 02:06:16;;;;;;;14.75;11.30;;;;;;;20.49;55.50;99511.95;1608198;89;20974;-78
2022/08/27 02:08:44;;;;;;;17.57;10.85;;;;;;;20.49;55.42;99511.39;1608618;89;21001;-78
2022/08/27 02:11:11;;;;;;;13.05;9.20;;;;;;;20.45;55.54;99503.05;1607895;89;21588;-76
2022/08/27 02:13:38;;;;;;;20.08;11.55;;;;;;;20.41;55.88;99510.28;1632920;87;21091;-78
2022/08/27 02:16:04;;;;;;;12.70;9.75;;;;;;;20.38;55.95;99506.02;1621805;88;21337;-82
2022/08/27 02:18:30;;;;;;;10.13;8.48;;;;;;;20.38;55.82;99508.16;1611174;88;21051;-85
2022/08/27 02:20:57;;;;;;;13.40;10.32;;;;;;;20.41;55.52;99508.91;1614327;88;21104;-84
2022/08/27 02:23:24;;;;;;;22.90;11.05;;;;;;;20.47;55.05;99512.30;1614235;88;21047;-84
2022/08/27 02:25:51;;;;;;;14.00;10.03;;;;;;;20.58;54.76;99508.67;1624807;87;21039;-86
2022/08/27 02:28:18;;;;;;;16.23;10.40;;;;;;;20.72;54.22;99509.34;1618387;87;21234;-83
2022/08/27 02:30:45;;;;;;;18.57;9.68;;;;;;;20.83;53.88;99514.72;1621592;88;21069;-84
2022/08/27 02:33:12;;;;;;;11.48;9.83;;;;;;;20.95;53.35;99508.61;1603552;88;21056;-84
2022/08/27 02:35:41;;;;;;;11.15;9.45;;;;;;;21.00;53.11;99503.80;1611124;87;21054;-74
2022/08/27 02:38:08;;;;;;;12.05;8.78;;;;;;;21.00;53.05;99509.26;1594668;88;21163;-72
2022/08/27 02:40:36;;;;;;;11.73;9.40;;;;;;;21.02;53.12;99507.55;1606249;89;21870;-76
2022/08/27 02:43:03;;;;;;;15.35;9.83;;;;;;;21.04;53.01;99509.41;1609705;87;20974;-72
2022/08/27 02:45:29;;;;;;;13.03;10.23;;;;;;;21.00;53.08;99504.35;1612750;87;21083;-74
2022/08/27 02:47:56;;;;;;;14.68;9.00;;;;;;;20.86;53.47;99511.36;1603857;88;21645;-71
2022/08/27 02:50:22;;;;;;;20.55;9.40;;;;;;;20.82;53.59;99509.81;1612762;87;21098;-73
2022/08/27 02:52:49;;;;;;;12.70;8.85;;;;;;;20.73;53.77;99506.27;1576533;90;21554;-73
2022/08/27 02:55:16;;;;;;;17.02;11.25;;;;;;;20.70;53.86;99506.93;1603292;89;21533;-71
2022/08/27 02:57:43;;;;;;;14.85;10.13;;;;;;;20.71;53.86;99508.55;1563865;88;21035;-70
2022/08/27 03:00:12;;;;;;;11.57;9.60;;;;;;;20.67;54.28;99499.35;1614252;88;21043;-72
2022/08/27 03:02:39;;;;;;;20.32;11.00;;;;;;;20.57;54.54;99500.25;1605570;87;21152;-70
2022/08/27 03:05:07;;;;;;;17.55;9.73;;;;;;;20.49;54.81;99496.92;1603418;88;21218;-71
2022/08/27 03:07:34;;;;;;;15.38;10.00;;;;;;;20.41;55.00;99497.98;1603318;88;21043;-72
2022/08/27 03:10:00;;;;;;;20.05;10.15;;;;;;;20.40;55.25;99495.56;1610950;88;20984;-70
2022/08/27 03:12:28;;;;;;;11.57;9.73;;;;;;;20.35;55.30;99486.15;1603202;89;21054;-72
2022/08/27 03:14:54;;;;;;;14.25;10.53;;;;;;;20.34;55.58;99494.91;1605034;88;21200;-71
2022/08/27 03:20:10;;;;;;;17.60;10.72;;;;;;;20.29;55.98;99494.22;1604542;89;21091;-71
2022/08/27 03:22:39;;;;;;;14.78;9.78;;;;;;;20.23;56.24;99494.95;1604368;88;21154;-69
2022/08/27 03:25:08;;;;;;;15.55;11.57;;;;;;;20.26;56.03;99495.67;1583206;89;21049;-71
2022/08/27 03:27:35;;;;;;;24.50;11.88;;;;;;;20.26;56.03;99491.58;1641948;87;21059;-70
2022/08/27 03:30:05;;;;;;;14.98;11.80;;;;;;;20.24;56.08;99490.30;1614299;88;21132;-70
2022/08/27 03:32:32;;;;;;;15.80;10.15;;;;;;;20.22;56.35;99485.14;1613959;88;21035;-70
2022/08/27 03:34:58;;;;;;;13.58;10.78;;;;;;;20.23;56.61;99484.58;1585308;88;21654;-72
2022/08/27 03:37:25;;;;;;;16.90;9.30;;;;;;;20.22;56.68;99491.97;1613742;88;21043;-76
2022/08/27 03:39:51;;;;;;;17.60;11.43;;;;;;;20.24;56.76;99491.66;1578494;89;21545;-73
2022/08/27 03:42:18;;;;;;;17.67;11.18;;;;;;;20.27;56.64;99489.65;1605428;88;21596;-73
2022/08/27 03:44:44;;;;;;;19.85;11.60;;;;;;;20.32;56.62;99491.70;1578561;90;21088;-74
2022/08/27 03:47:10;;;;;;;21.37;12.33;;;;;;;20.37;56.51;99492.11;1619246;88;21095;-72
2022/08/27 03:49:37;;;;;;;14.23;12.00;;;;;;;20.40;56.47;99495.00;1614630;88;21102;-73
2022/08/27 03:52:04;;;;;;;15.28;11.73;;;;;;;20.43;56.59;99486.74;1636341;87;21125;-75
2022/08/27 03:54:31;;;;;;;19.62;11.65;;;;;;;20.48;56.47;99486.56;1578578;88;21130;-72
2022/08/27 03:56:58;;;;;;;14.28;10.35;;;;;;;20.49;56.47;99486.81;1608397;87;21547;-73
2022/08/27 03:59:24;;;;;;;12.90;9.53;;;;;;;20.50;56.43;99477.49;1625052;88;21578;-73
2022/08/27 04:01:51;;;;;;;21.50;11.30;;;;;;;20.52;56.45;99477.18;1627308;88;21022;-71
2022/08/27 04:04:17;;;;;;;16.20;10.70;;;;;;;20.40;56.96;99475.87;1656853;86;21062;-72
2022/08/27 04:06:45;;;;;;;14.28;10.72;;;;;;;20.34;57.12;99482.61;1618954;88;21273;-74
2022/08/27 04:09:12;;;;;;;15.08;10.65;;;;;;;20.35;57.09;99484.78;1569867;91;21156;-73
2022/08/27 04:11:38;;;;;;;13.03;9.35;;;;;;;20.34;57.12;99483.17;1574228;89;21066;-71
2022/08/27 04:14:05;;;;;;;11.97;9.20;;;;;;;20.34;57.17;99476.34;1596162;88;21035;-72
2022/08/27 04:19:05;;;;;;;13.62;9.53;;;;;;;20.43;57.29;99480.69;1848426;76;22842;-72
2022/08/27 04:21:32;;;;;;;14.55;9.68;;;;;;;20.46;57.08;99476.53;1820805;77;20981;-70
2022/08/27 04:23:59;;;;;;;15.25;9.40;;;;;;;20.51;56.90;99476.94;1788972;78;21117;-71
2022/08/27 04:26:27;;;;;;;13.95;9.53;;;;;;;20.60;56.78;99475.00;1816602;77;20947;-71
2022/08/27 04:28:54;;;;;;;19.57;9.60;;;;;;;20.59;56.65;99472.83;1823009;77;21205;-72
2022/08/27 04:31:20;;;;;;;15.80;9.45;;;;;;;20.54;56.83;99473.55;1820892;78;22258;-70
2022/08/27 04:33:47;;;;;;;15.72;9.70;;;;;;;20.52;56.99;99477.18;1815917;77;21492;-71
2022/08/27 04:36:14;;;;;;;16.20;9.90;;;;;;;20.49;57.11;99474.52;1825423;77;21913;-71
2022/08/27 04:38:40;;;;;;;23.80;10.63;;;;;;;20.49;57.19;99470.41;1823857;78;22204;-73
2022/08/27 04:41:26;;;;;;;16.25;11.40;;;;;;;20.51;57.33;99468.18;1823716;78;20997;-74
2022/08/27 04:43:57;;;;;;;13.62;9.75;;;;;;;20.57;57.27;99468.27;1820029;78;20958;-74
2022/08/27 04:46:27;;;;;;;18.50;10.18;;;;;;;20.65;57.16;99468.02;1784601;79;21609;-75
2022/08/27 04:48:58;;;;;;;14.53;9.60;;;;;;;20.74;56.96;99468.81;1786177;80;22041;-73
2022/08/27 04:51:26;;;;;;;16.55;9.90;;;;;;;20.78;56.91;99466.48;1793243;78;21034;-72
2022/08/27 04:53:52;;;;;;;18.10;9.55;;;;;;;20.75;57.19;99463.59;1797080;78;20982;-73
2022/08/27 04:56:22;;;;;;;15.63;9.98;;;;;;;20.68;57.56;99462.70;1749378;82;20991;-72
2022/08/27 04:58:50;;;;;;;14.60;9.65;;;;;;;20.68;57.56;99459.97;1788970;79;21629;-72
2022/08/27 05:01:20;;;;;;;16.42;9.28;;;;;;;20.68;57.73;99462.70;1788989;79;21968;-73
2022/08/27 05:03:46;;;;;;;20.27;9.03;;;;;;;20.64;57.96;99466.41;1800127;79;21052;-73
2022/08/27 05:06:13;;;;;;;16.00;9.50;;;;;;;20.63;58.10;99464.79;1817194;78;20998;-73
2022/08/27 05:08:39;;;;;;;17.75;9.50;;;;;;;20.67;58.11;99467.92;1790839;78;21018;-72
2022/08/27 05:11:12;;;;;;;13.70;9.70;;;;;;;20.74;57.93;99480.55;1777769;80;20957;-73
2022/08/27 05:13:43;;;;;;;14.28;9.45;;;;;;;20.92;57.40;99484.08;1777357;80;21225;-73
2022/08/27 05:16:21;;;;;;;16.65;10.35;;;;;;;21.06;57.02;99479.23;1746599;80;20944;-73
2022/08/27 05:18:49;;;;;;;17.37;10.55;;;;;;;21.13;56.73;99477.38;1786739;80;20935;-75
2022/08/27 05:21:25;;;;;;;15.70;9.83;;;;;;;21.11;56.86;99478.26;1804583;78;21120;-72
2022/08/27 05:23:54;;;;;;;17.30;9.03;;;;;;;21.04;57.19;99477.41;1789544;79;20972;-72
2022/08/27 05:26:20;;;;;;;13.40;10.72;;;;;;;21.03;56.90;99466.22;1788233;79;21702;-71
2022/08/27 05:28:47;;;;;;;25.00;15.60;;;;;;;21.03;57.26;99468.14;1788418;80;20974;-71
2022/08/27 05:31:14;;;;;;;27.87;14.35;;;;;;;21.00;57.52;99476.45;1802988;79;20994;-73
2022/08/27 05:33:41;;;;;;;32.83;16.93;;;;;;;20.99;57.62;99475.39;1815423;79;20917;-71
2022/08/27 05:36:20;;;;;;;30.25;16.15;;;;;;;21.09;57.69;99474.50;1796761;78;21058;-70
2022/08/27 05:38:48;;;;;;;27.20;15.43;;;;;;;21.17;57.33;99472.33;1776923;80;21882;-70
2022/08/27 05:41:19;;;;;;;29.60;17.23;;;;;;;21.17;57.33;99472.33;1781694;79;20916;-71
2022/08/27 05:43:46;;;;;;;22.90;15.85;;;;;;;21.26;57.48;99473.67;1787952;80;21046;-77
2022/08/27 05:46:15;;;;;;;26.68;17.15;;;;;;;21.12;58.09;99472.47;1794840;79;20932;-72
2022/08/27 05:48:42;;;;;;;26.00;13.93;;;;;;;21.12;58.09;99472.47;1815336;79;20984;-71
2022/08/27 05:51:19;;;;;;;17.35;10.75;;;;;;;21.08;58.08;99462.51;1805541;78;21531;-71
2022/08/27 05:53:45;;;;;;;14.93;9.80;;;;;;;21.06;58.13;99468.30;1778232;79;20967;-70
2022/08/27 05:56:14;;;;;;;13.45;7.22;;;;;;;21.06;58.25;99468.85;1786252;80;21513;-72
2022/08/27 06:01:26;;;;;;;13.38;7.65;;;;;;;21.09;57.99;99462.19;1783505;79;20987;-72
2022/08/27 06:03:53;;;;;;;13.90;7.87;;;;;;;21.14;57.69;99460.69;1788204;80;21484;-73
2022/08/27 06:06:21;;;;;;;16.10;9.35;;;;;;;21.24;57.49;99469.92;1797978;78;21021;-72
2022/08/27 06:08:49;;;;;;;15.68;10.43;;;;;;;21.33;57.23;99453.47;1795921;79;20932;-73
2022/08/27 06:11:18;;;;;;;17.35;9.33;;;;;;;21.32;57.08;99450.49;1789601;79;21554;-70
2022/08/27 06:13:45;;;;;;;14.07;8.63;;;;;;;21.27;57.43;99462.42;1782728;80;21049;-70
2022/08/27 06:16:15;;;;;;;14.95;8.43;;;;;;;21.29;57.06;99454.67;1746106;80;21116;-70
2022/08/27 06:18:44;;;;;;;18.92;10.63;;;;;;;21.29;57.06;99454.67;1785725;79;20963;-69
2022/08/27 06:21:11;;;;;;;21.37;11.38;;;;;;;21.27;57.58;99457.51;1802891;78;21081;-72
2022/08/27 06:23:38;;;;;;;13.25;9.33;;;;;;;21.28;57.62;99457.19;1794418;78;21004;-70
2022/08/27 06:26:07;;;;;;;15.23;8.33;;;;;;;21.33;57.37;99466.34;1787869;80;20923;-71
2022/08/27 06:28:35;;;;;;;21.25;8.90;;;;;;;21.41;57.10;99469.05;1787792;80;21149;-71
2022/08/27 06:31:07;;;;;;;16.73;9.20;;;;;;;21.50;56.83;99460.25;1788036;80;21056;-72
2022/08/27 06:33:33;;;;;;;18.23;9.83;;;;;;;21.64;56.47;99464.94;1807344;79;21024;-73
2022/08/27 06:36:06;;;;;;;22.32;8.25;;;;;;;21.69;56.34;99467.49;1796747;78;21039;-71
2022/08/27 06:38:33;;;;;;;22.17;9.68;;;;;;;21.62;56.51;99463.11;1769040;79;20943;-72
2022/08/27 06:41:07;;;;;;;21.12;8.35;;;;;;;21.59;56.93;99464.31;1813363;79;21038;-71
2022/08/27 06:43:35;;;;;;;;;;;;;;;21.58;57.15;99464.09;1723200;83;21139;-72
2022/08/27 06:46:06;;;;;;;14.50;8.85;;;;;;;21.54;57.14;99463.12;1690547;84;20205;-71
2022/08/27 06:48:33;;;;;;;16.75;8.60;;;;;;;21.50;57.24;99464.91;1700442;83;21019;-72
2022/08/27 06:51:00;;;;;;;18.85;9.28;;;;;;;21.51;57.17;99456.38;1744364;81;21042;-73
2022/08/27 06:53:26;;;;;;;23.35;7.80;;;;;;;21.59;57.10;99451.99;1753126;81;21750;-72
2022/08/27 06:55:53;;;;;;;8.98;6.12;;;;;;;21.70;56.58;99445.84;1787544;80;21082;-73
2022/08/27 06:58:19;;;;;;;10.78;6.90;;;;;;;21.82;55.96;99450.63;1787949;79;20991;-72
2022/08/27 07:00:50;;;;;;;10.38;7.58;;;;;;;21.94;55.27;99438.98;1811287;79;20923;-74
2022/08/27 07:03:16;;;;;;;10.70;6.17;;;;;;;22.07;55.00;99448.88;1806169;79;20971;-71
2022/08/27 07:05:42;;;;;;;12.95;7.30;;;;;;;22.14;55.29;99440.39;1806944;78;21079;-73
2022/08/27 07:08:09;;;;;;;11.28;7.37;;;;;;;22.21;55.45;99445.33;1802939;78;20907;-75
2022/08/27 07:10:36;;;;;;;15.45;7.60;;;;;;;22.18;55.92;99444.06;1791099;79;20932;-71
2022/08/27 07:13:03;;;;;;;13.68;6.65;;;;;;;22.17;56.08;99440.28;1786205;80;20860;-70
2022/08/27 07:15:30;;;;;;;9.23;5.58;;;;;;;22.17;55.87;99436.17;1786646;80;21008;-71
2022/08/27 07:17:57;;;;;;;12.23;6.03;;;;;;;22.22;55.65;99429.69;1786912;80;21862;-72
2022/08/27 07:20:24;;;;;;;13.58;6.87;;;;;;;22.32;55.30;99426.56;1792788;78;21499;-76
2022/08/27 07:22:53;;;;;;;13.78;6.83;;;;;;;22.43;54.68;99435.99;1799993;79;20939;-72
2022/08/27 07:25:19;;;;;;;25.00;6.65;;;;;;;22.57;54.01;99429.67;1792251;80;20985;-73
2022/08/27 07:27:48;;;;;;;17.77;6.35;;;;;;;22.69;53.45;99428.34;1792777;80;21001;-73
2022/08/27 07:30:16;;;;;;;9.15;6.37;;;;;;;22.79;53.23;99435.38;1793142;78;21091;-73
2022/08/27 07:32:44;;;;;;;15.10;8.35;;;;;;;22.87;52.78;99447.66;1793345;80;21478;-72
2022/08/27 07:35:10;;;;;;;13.38;7.25;;;;;;;22.92;52.57;99448.02;1793660;78;21501;-73
2022/08/27 07:37:38;;;;;;;15.30;9.50;;;;;;;22.95;52.46;99455.56;1793377;80;21516;-72
2022/08/27 07:40:11;;;;;;;15.15;7.90;;;;;;;23.02;52.42;99459.95;1794938;79;21602;-71
2022/08/27 07:45:24;;;;;;;12.85;7.53;;;;;;;23.20;52.00;99453.70;1792368;79;20967;-72
2022/08/27 07:47:51;;;;;;;13.25;8.68;;;;;;;23.30;51.99;99453.27;1788714;80;20998;-75
2022/08/27 07:50:18;;;;;;;21.40;9.08;;;;;;;23.37;51.66;99448.81;1808047;78;21523;-72
2022/08/27 07:52:45;;;;;;;17.80;9.70;;;;;;;23.39;51.93;99446.55;1790790;79;21065;-71
2022/08/27 07:55:12;;;;;;;13.18;7.25;;;;;;;23.37;52.07;99447.45;1775267;79;21673;-72
2022/08/27 07:57:38;;;;;;;18.87;10.43;;;;;;;23.43;52.04;99449.41;1793441;80;21062;-74
2022/08/27 08:00:09;;;;;;;18.52;9.53;;;;;;;23.44;52.26;99447.73;1762214;80;21518;-72
2022/08/27 08:02:40;;;;;;;14.00;8.30;;;;;;;23.46;52.63;99441.31;1758622;80;21009;-73
2022/08/27 08:05:08;;;;;;;16.07;7.37;;;;;;;23.51;52.63;99441.66;1813416;78;21520;-72
2022/08/27 08:07:37;;;;;;;11.50;6.12;;;;;;;23.59;52.56;99449.01;1787070;79;21406;-74
2022/08/27 08:10:06;;;;;;;16.07;6.37;;;;;;;23.67;52.12;99444.54;1817804;79;20992;-74
2022/08/27 08:12:38;;;;;;;11.80;6.42;;;;;;;23.74;52.23;99446.16;1773961;78;20999;-72
2022/08/27 08:15:07;;;;;;;12.68;7.17;;;;;;;23.78;52.38;99436.89;1789819;80;20964;-70
2022/08/27 08:17:34;;;;;;;11.55;6.83;;;;;;;23.77;52.61;99439.97;1793549;80;21044;-72
2022/08/27 08:20:01;;;;;;;14.78;7.17;;;;;;;23.84;52.72;99442.92;1819455;77;21077;-70
2022/08/27 08:22:29;;;;;;;18.35;7.55;;;;;;;23.89;52.86;99439.38;1796040;78;21009;-71
2022/08/27 08:24:55;;;;;;;12.95;7.20;;;;;;;23.92;52.86;99435.16;1793876;80;20966;-71
2022/08/27 08:27:22;;;;;;;11.22;6.90;;;;;;;24.01;52.57;99439.16;1793506;80;20979;-71
2022/08/27 08:29:50;;;;;;;8.75;5.53;;;;;;;24.13;51.85;99437.75;1794352;78;21031;-70
2022/08/27 08:32:17;;;;;;;12.30;6.00;;;;;;;24.27;50.74;99438.22;1788711;78;21298;-71
2022/08/27 08:34:43;;;;;;;15.78;4.97;;;;;;;24.45;50.30;99436.81;1793775;78;21021;-72
2022/08/27 08:37:13;;;;;;;12.78;5.85;;;;;;;24.62;49.25;99432.40;1789818;78;21512;-71
2022/08/27 08:39:39;;;;;;;19.62;5.90;;;;;;;24.76;48.11;99434.17;1795522;78;20983;-71
2022/08/27 08:42:10;;;;;;;10.58;5.90;;;;;;;24.92;47.61;99425.20;1796644;78;21128;-72
2022/08/27 08:44:47;;;;;;;11.57;5.58;;;;;;;25.07;46.59;99427.19;1769870;80;21150;-71
2022/08/27 08:47:39;;;;;;;7.65;5.20;;;;;;;25.24;46.07;99425.47;1793441;78;21528;-72
2022/08/27 08:50:27;;;;;;;9.95;5.85;;;;;;;25.39;45.96;99430.77;1815495;79;21530;-71
2022/08/27 08:53:01;;;;;;;8.23;5.05;;;;;;;25.57;45.46;99417.70;1808118;78;20997;-71
2022/08/27 08:55:51;;;;;;;9.63;5.83;;;;;;;25.75;44.66;99416.77;1803065;78;21039;-72
2022/08/27 08:58:47;;;;;;;11.08;5.35;;;;;;;25.87;44.37;99416.65;1793807;78;21793;-73
2022/08/27 09:01:19;;;;;;;11.90;6.20;;;;;;;25.98;44.05;99421.04;1782716;79;21542;-73
2022/08/27 09:03:56;;;;;;;;;;;;;;;26.11;43.14;99418.38;1796843;78;20967;-72
2022/08/27 09:06:39;;;;;;;10.30;5.92;;;;;;;26.21;43.10;99417.02;1782546;78;20162;-71
2022/08/27 09:09:32;;;;;;;;;;;;;;;26.31;41.46;99412.34;1790630;79;20998;-74
2022/08/27 09:12:18;;;;;;;11.55;5.47;;;;;;;26.40;41.06;99422.58;1755795;81;21148;-73
2022/08/27 09:15:02;;;;;;;10.95;5.85;;;;;;;26.53;41.01;99424.04;1706465;81;21699;-73
2022/08/27 09:17:29;;;;;;;14.05;5.72;;;;;;;26.66;40.06;99419.19;1719262;81;21572;-73
2022/08/27 09:19:56;;;;;;;14.45;5.22;;;;;;;26.81;40.26;99422.45;1729633;81;20972;-72
2022/08/27 09:22:54;;;;;;;15.80;6.42;;;;;;;26.94;39.52;99421.16;1759428;80;21023;-73
2022/08/27 09:25:33;;;;;;;11.48;5.15;;;;;;;27.04;39.38;99416.42;1785870;80;21220;-72
2022/08/27 09:28:04;;;;;;;12.43;5.80;;;;;;;27.13;39.31;99411.46;1775947;78;21078;-70
2022/08/27 09:30:36;;;;;;;14.05;5.85;;;;;;;27.22;39.43;99412.59;1763358;80;21026;-70
2022/08/27 09:33:03;;;;;;;13.38;5.45;;;;;;;27.29;39.18;99411.33;1785984;78;20899;-70
2022/08/27 09:35:41;;;;;;;13.58;5.80;;;;;;;27.40;39.30;99416.46;1787812;78;21002;-72
2022/08/27 09:38:08;;;;;;;17.52;6.35;;;;;;;27.52;38.78;99408.61;1798323;78;21125;-72
2022/08/27 09:40:41;;;;;;;21.35;7.12;;;;;;;27.64;37.54;99407.02;1791806;78;20994;-72
2022/08/27 09:43:19;;;;;;;16.23;7.00;;;;;;;27.76;36.42;99413.74;1794784;78;20946;-71
2022/08/27 09:45:51;;;;;;;23.30;8.10;;;;;;;27.89;35.42;99412.94;1799302;78;21027;-72
2022/08/27 09:48:21;;;;;;;25.75;6.72;;;;;;;27.98;34.52;99414.84;1800178;78;21015;-71
2022/08/27 09:50:53;;;;;;;17.65;7.17;;;;;;;28.01;34.62;99409.97;1792170;78;21771;-69
2022/08/27 09:53:30;;;;;;;19.05;7.37;;;;;;;28.08;34.88;99416.98;1794077;78;20988;-69
2022/08/27 09:56:02;;;;;;;23.83;8.95;;;;;;;28.13;35.02;99426.36;1787339;78;20939;-70
2022/08/27 09:59:13;;;;;;;37.65;9.35;;;;;;;28.19;34.92;99415.20;1782496;78;20982;-73
2022/08/27 10:01:53;;;;;;;15.68;7.10;;;;;;;28.28;34.42;99414.91;1701916;83;21017;-73
2022/08/27 10:04:46;;;;;;;25.55;7.65;;;;;;;28.38;34.77;99409.53;1739497;78;21485;-90
2022/08/27 10:07:46;;;;;;;31.00;10.78;;;;;;;28.56;34.87;99414.70;1768026;78;20951;-72
2022/08/27 10:10:29;;;;;;;25.20;8.30;;;;;;;28.74;34.63;99412.75;1791976;78;20910;-73
2022/08/27 10:13:17;;;;;;;38.45;9.60;;;;;;;28.85;34.21;99416.44;1780910;78;21018;-72
2022/08/27 10:16:09;;;;;;;23.80;7.42;;;;;;;28.94;33.97;99403.89;1790920;78;21085;-71
2022/08/27 10:19:17;;;;;;;22.87;7.40;;;;;;;29.12;33.79;99408.80;1762992;78;21787;-69
2022/08/27 10:21:57;;;;;;;27.20;7.78;;;;;;;29.21;33.57;99419.02;1749302;81;21540;-72
2022/08/27 10:24:35;;;;;;;24.43;9.13;;;;;;;29.30;33.99;99405.64;1787833;80;21033;-71
2022/08/27 10:27:24;;;;;;;18.32;7.55;;;;;;;29.33;34.15;99414.00;1756704;80;20966;-70
2022/08/27 10:30:10;;;;;;;31.52;7.75;;;;;;;29.37;34.40;99416.22;1787306;79;21469;-72
2022/08/27 10:33:16;;;;;;;35.95;9.43;;;;;;;29.38;34.57;99421.17;1784906;78;20939;-73
2022/08/27 10:35:50;;;;;;;30.88;9.30;;;;;;;29.39;34.67;99418.03;1778979;80;20990;-74
2022/08/27 10:38:40;;;;;;;21.62;8.63;;;;;;;29.47;34.59;99413.33;1785140;78;21533;-71
2022/08/27 10:41:20;;;;;;;18.20;9.28;;;;;;;29.58;34.72;99414.23;1792737;78;21045;-72
2022/08/27 10:44:18;;;;;;;30.92;9.35;;;;;;;29.67;34.95;99406.96;1794040;78;20982;-69
2022/08/27 10:47:15;;;;;;;26.52;7.78;;;;;;;29.77;34.75;99411.20;1782624;78;21081;-70
2022/08/27 10:50:06;;;;;;;22.42;7.42;;;;;;;29.93;34.21;99410.93;1716172;81;20956;-69
2022/08/27 10:52:50;;;;;;;18.02;8.23;;;;;;;30.16;33.28;99410.11;1785295;78;20971;-70
2022/08/27 10:55:37;;;;;;;15.83;6.78;;;;;;;30.35;32.42;99409.02;1787026;80;21585;-71
2022/08/27 10:58:47;;;;;;;31.97;7.40;;;;;;;30.46;32.17;99409.08;1791496;78;21042;-76
2022/08/27 11:01:43;;;;;;;27.48;7.12;;;;;;;30.65;31.99;99404.59;1806276;78;21134;-72
2022/08/27 11:04:18;;;;;;;20.65;6.65;;;;;;;30.87;31.58;99402.10;1797459;78;32580;-72
2022/08/27 11:06:54;;;;;;;21.52;5.85;;;;;;;31.00;29.37;99399.74;1786813;78;20978;-73
2022/08/27 11:09:36;;;;;;;18.50;6.83;;;;;;;31.02;28.80;99412.69;1789089;80;21467;-71
2022/08/27 11:12:08;;;;;;;19.85;6.37;;;;;;;30.96;29.11;99415.61;1771474;80;20988;-71
2022/08/27 11:14:39;;;;;;;23.97;7.93;;;;;;;30.91;29.62;99410.44;1790289;78;21124;-71
2022/08/27 11:17:28;;;;;;;24.52;6.87;;;;;;;30.91;29.84;99409.84;1789443;80;21519;-71
2022/08/27 11:20:23;;;;;;;21.52;7.45;;;;;;;30.85;29.99;99414.77;1790568;80;21091;-74
2022/08/27 11:22:55;;;;;;;17.60;5.87;;;;;;;30.80;30.08;99409.01;1770151;81;21032;-73
2022/08/27 11:25:33;;;;;;;17.80;6.15;;;;;;;30.81;29.27;99403.66;1784345;80;20980;-72
2022/08/27 11:27:59;;;;;;;15.30;5.03;;;;;;;30.84;28.31;99397.31;1777998;80;21055;-73
2022/08/27 11:30:36;;;;;;;11.63;4.55;;;;;;;30.94;28.09;99408.25;1743850;81;20923;-73
2022/08/27 11:33:26;;;;;;;12.65;5.78;;;;;;;30.99;28.51;99401.72;1790466;78;21086;-71
2022/08/27 11:36:18;;;;;;;10.90;6.03;;;;;;;30.97;29.20;99407.48;1790802;80;20958;-71
2022/08/27 11:39:14;;;;;;;10.30;5.47;;;;;;;30.93;29.48;99398.35;1790943;80;21070;-72
2022/08/27 11:42:14;;;;;;;15.63;7.53;;;;;;;31.01;29.96;99398.00;1677005;85;21159;-73
2022/08/27 11:44:43;;;;;;;20.50;8.35;;;;;;;31.07;29.82;99399.20;1791205;80;21673;-76
2022/08/27 11:47:20;;;;;;;20.00;9.85;;;;;;;31.07;30.01;99397.81;1791053;80;20955;-74
2022/08/27 11:49:56;;;;;;;30.32;11.03;;;;;;;31.02;30.97;99394.03;1763773;80;20978;-76
2022/08/27 11:52:36;;;;;;;20.00;10.90;;;;;;;30.99;31.59;99392.00;1790845;80;21053;-76
2022/08/27 11:55:20;;;;;;;24.05;10.60;;;;;;;31.01;31.89;99392.44;1790482;80;21737;-75
2022/08/27 11:57:49;;;;;;;11.22;7.80;;;;;;;31.03;32.04;99391.44;1790868;80;21044;-76